sensor_id;sensor_type;location;lat;lon;timestamp;P1;durP1;ratioP1;P2;durP2;ratioP2
72728;SDS011;60843;52.062;4.508;2023-05-07T00:01:18;45.15;;;21.00;;
72728;SDS011;60843;52.062;4.508;2023-05-07T00:03:44;44.53;;;22.23;;
72728;SDS011;60843;52.062;4.508;2023-05-07T00:06:09;42.28;;;22.27;;
72728;SDS011;60843;52.062;4.508;2023-05-07T00:08:37;45.08;;;22.02;;
72728;SDS011;60843;52.062;4.508;2023-05-07T00:11:03;44.25;;;21.63;;
72728;SDS011;60843;52.062;4.508;2023-05-07T00:13:28;42.40;;;21.73;;
72728;SDS011;60843;52.062;4.508;2023-05-07T00:16:00;41.97;;;22.02;;
72728;SDS011;60843;52.062;4.508;2023-05-07T00:18:26;44.05;;;20.73;;
72728;SDS011;60843;52.062;4.508;2023-05-07T00:20:51;39.97;;;20.05;;
72728;SDS011;60843;52.062;4.508;2023-05-07T00:23:18;39.47;;;20.48;;
72728;SDS011;60843;52.062;4.508;2023-05-07T00:25:43;43.55;;;21.00;;
72728;SDS011;60843;52.062;4.508;2023-05-07T00:28:09;47.95;;;21.10;;
72728;SDS011;60843;52.062;4.508;2023-05-07T00:30:34;45.83;;;22.63;;
72728;SDS011;60843;52.062;4.508;2023-05-07T00:33:00;47.58;;;22.95;;
72728;SDS011;60843;52.062;4.508;2023-05-07T00:35:25;48.00;;;21.45;;
72728;SDS011;60843;52.062;4.508;2023-05-07T00:40:20;46.33;;;20.90;;
72728;SDS011;60843;52.062;4.508;2023-05-07T00:42:46;44.35;;;22.50;;
72728;SDS011;60843;52.062;4.508;2023-05-07T00:45:14;45.97;;;22.73;;
72728;SDS011;60843;52.062;4.508;2023-05-07T00:47:40;42.85;;;21.27;;
72728;SDS011;60843;52.062;4.508;2023-05-07T00:50:06;45.10;;;20.27;;
72728;SDS011;60843;52.062;4.508;2023-05-07T00:52:32;43.75;;;21.15;;
72728;SDS011;60843;52.062;4.508;2023-05-07T00:54:57;41.25;;;20.75;;
72728;SDS011;60843;52.062;4.508;2023-05-07T00:57:25;45.17;;;21.63;;
72728;SDS011;60843;52.062;4.508;2023-05-07T00:59:51;47.58;;;21.63;;
72728;SDS011;60843;52.062;4.508;2023-05-07T01:02:17;40.75;;;20.65;;
72728;SDS011;60843;52.062;4.508;2023-05-07T01:04:42;44.65;;;21.00;;
72728;SDS011;60843;52.062;4.508;2023-05-07T01:07:07;44.03;;;20.85;;
72728;SDS011;60843;52.062;4.508;2023-05-07T01:09:33;48.28;;;20.75;;
72728;SDS011;60843;52.062;4.508;2023-05-07T01:12:00;40.58;;;20.92;;
72728;SDS011;60843;52.062;4.508;2023-05-07T01:14:26;42.17;;;21.70;;
72728;SDS011;60843;52.062;4.508;2023-05-07T01:16:52;39.65;;;20.67;;
72728;SDS011;60843;52.062;4.508;2023-05-07T01:19:18;36.95;;;19.75;;
72728;SDS011;60843;52.062;4.508;2023-05-07T01:21:47;38.50;;;19.30;;
72728;SDS011;60843;52.062;4.508;2023-05-07T01:24:14;41.80;;;20.65;;
72728;SDS011;60843;52.062;4.508;2023-05-07T01:26:40;42.60;;;19.95;;
72728;SDS011;60843;52.062;4.508;2023-05-07T01:29:05;43.53;;;20.30;;
72728;SDS011;60843;52.062;4.508;2023-05-07T01:31:32;40.88;;;20.75;;
72728;SDS011;60843;52.062;4.508;2023-05-07T01:33:58;43.08;;;20.13;;
72728;SDS011;60843;52.062;4.508;2023-05-07T01:36:24;42.45;;;20.20;;
72728;SDS011;60843;52.062;4.508;2023-05-07T01:38:52;42.63;;;20.73;;
72728;SDS011;60843;52.062;4.508;2023-05-07T01:41:18;43.95;;;20.90;;
72728;SDS011;60843;52.062;4.508;2023-05-07T01:43:45;45.22;;;20.98;;
72728;SDS011;60843;52.062;4.508;2023-05-07T01:46:11;43.78;;;21.23;;
72728;SDS011;60843;52.062;4.508;2023-05-07T01:48:38;48.92;;;22.33;;
72728;SDS011;60843;52.062;4.508;2023-05-07T01:51:05;41.50;;;20.88;;
72728;SDS011;60843;52.062;4.508;2023-05-07T01:53:40;48.58;;;22.48;;
72728;SDS011;60843;52.062;4.508;2023-05-07T01:56:05;49.10;;;21.48;;
72728;SDS011;60843;52.062;4.508;2023-05-07T01:58:32;43.63;;;20.52;;
72728;SDS011;60843;52.062;4.508;2023-05-07T02:01:05;43.13;;;21.50;;
72728;SDS011;60843;52.062;4.508;2023-05-07T02:03:30;41.08;;;21.17;;
72728;SDS011;60843;52.062;4.508;2023-05-07T02:05:56;42.30;;;20.63;;
72728;SDS011;60843;52.062;4.508;2023-05-07T02:08:21;40.13;;;19.02;;
72728;SDS011;60843;52.062;4.508;2023-05-07T02:10:47;35.70;;;18.70;;
72728;SDS011;60843;52.062;4.508;2023-05-07T02:13:12;40.45;;;19.77;;
72728;SDS011;60843;52.062;4.508;2023-05-07T02:15:38;34.90;;;18.00;;
72728;SDS011;60843;52.062;4.508;2023-05-07T02:18:04;33.67;;;18.98;;
72728;SDS011;60843;52.062;4.508;2023-05-07T02:20:34;35.60;;;18.58;;
72728;SDS011;60843;52.062;4.508;2023-05-07T02:23:00;34.60;;;18.10;;
72728;SDS011;60843;52.062;4.508;2023-05-07T02:25:25;37.17;;;18.45;;
72728;SDS011;60843;52.062;4.508;2023-05-07T02:27:51;33.25;;;17.65;;
72728;SDS011;60843;52.062;4.508;2023-05-07T02:30:16;34.72;;;18.35;;
72728;SDS011;60843;52.062;4.508;2023-05-07T02:32:42;35.33;;;18.35;;
72728;SDS011;60843;52.062;4.508;2023-05-07T02:35:07;33.42;;;17.95;;
72728;SDS011;60843;52.062;4.508;2023-05-07T02:37:33;32.58;;;18.27;;
72728;SDS011;60843;52.062;4.508;2023-05-07T02:39:58;30.50;;;16.60;;
72728;SDS011;60843;52.062;4.508;2023-05-07T02:42:24;34.47;;;17.52;;
72728;SDS011;60843;52.062;4.508;2023-05-07T02:44:49;31.97;;;17.17;;
72728;SDS011;60843;52.062;4.508;2023-05-07T02:47:15;34.63;;;18.13;;
72728;SDS011;60843;52.062;4.508;2023-05-07T02:49:40;34.08;;;17.58;;
72728;SDS011;60843;52.062;4.508;2023-05-07T02:52:06;31.90;;;18.00;;
72728;SDS011;60843;52.062;4.508;2023-05-07T02:54:31;31.92;;;17.42;;
72728;SDS011;60843;52.062;4.508;2023-05-07T02:57:03;32.63;;;17.10;;
72728;SDS011;60843;52.062;4.508;2023-05-07T02:59:28;31.02;;;17.20;;
72728;SDS011;60843;52.062;4.508;2023-05-07T03:01:54;29.98;;;17.48;;
72728;SDS011;60843;52.062;4.508;2023-05-07T03:04:19;32.60;;;18.00;;
72728;SDS011;60843;52.062;4.508;2023-05-07T03:06:45;32.22;;;17.35;;
72728;SDS011;60843;52.062;4.508;2023-05-07T03:09:10;28.10;;;16.90;;
72728;SDS011;60843;52.062;4.508;2023-05-07T03:11:36;30.58;;;17.70;;
72728;SDS011;60843;52.062;4.508;2023-05-07T03:14:01;28.23;;;15.95;;
72728;SDS011;60843;52.062;4.508;2023-05-07T03:16:27;27.63;;;16.00;;
72728;SDS011;60843;52.062;4.508;2023-05-07T03:18:52;26.88;;;16.20;;
72728;SDS011;60843;52.062;4.508;2023-05-07T03:21:18;29.03;;;16.33;;
72728;SDS011;60843;52.062;4.508;2023-05-07T03:23:43;31.92;;;18.35;;
72728;SDS011;60843;52.062;4.508;2023-05-07T03:26:09;26.38;;;15.85;;
72728;SDS011;60843;52.062;4.508;2023-05-07T03:28:34;24.38;;;15.38;;
72728;SDS011;60843;52.062;4.508;2023-05-07T03:31:00;26.23;;;14.98;;
72728;SDS011;60843;52.062;4.508;2023-05-07T03:33:26;21.88;;;14.30;;
72728;SDS011;60843;52.062;4.508;2023-05-07T03:35:52;23.20;;;14.70;;
72728;SDS011;60843;52.062;4.508;2023-05-07T03:38:18;23.27;;;13.85;;
72728;SDS011;60843;52.062;4.508;2023-05-07T03:40:43;25.00;;;14.33;;
72728;SDS011;60843;52.062;4.508;2023-05-07T03:43:08;22.05;;;13.50;;
72728;SDS011;60843;52.062;4.508;2023-05-07T03:45:34;24.10;;;14.90;;
72728;SDS011;60843;52.062;4.508;2023-05-07T03:48:00;21.25;;;13.48;;
72728;SDS011;60843;52.062;4.508;2023-05-07T03:50:25;20.52;;;13.60;;
72728;SDS011;60843;52.062;4.508;2023-05-07T03:52:51;22.70;;;13.30;;
72728;SDS011;60843;52.062;4.508;2023-05-07T03:55:16;18.50;;;13.27;;
72728;SDS011;60843;52.062;4.508;2023-05-07T03:57:42;19.73;;;12.70;;
72728;SDS011;60843;52.062;4.508;2023-05-07T04:00:07;22.33;;;13.48;;
72728;SDS011;60843;52.062;4.508;2023-05-07T04:02:33;22.77;;;13.98;;
72728;SDS011;60843;52.062;4.508;2023-05-07T04:04:58;21.00;;;13.13;;
72728;SDS011;60843;52.062;4.508;2023-05-07T04:07:24;21.85;;;13.82;;
72728;SDS011;60843;52.062;4.508;2023-05-07T04:09:49;19.20;;;13.27;;
72728;SDS011;60843;52.062;4.508;2023-05-07T04:12:16;22.98;;;13.45;;
72728;SDS011;60843;52.062;4.508;2023-05-07T04:14:41;19.88;;;13.05;;
72728;SDS011;60843;52.062;4.508;2023-05-07T04:17:06;17.73;;;11.95;;
72728;SDS011;60843;52.062;4.508;2023-05-07T04:19:34;18.23;;;13.50;;
72728;SDS011;60843;52.062;4.508;2023-05-07T04:22:00;19.27;;;12.77;;
72728;SDS011;60843;52.062;4.508;2023-05-07T04:24:25;20.48;;;13.02;;
72728;SDS011;60843;52.062;4.508;2023-05-07T04:26:51;21.83;;;13.18;;
72728;SDS011;60843;52.062;4.508;2023-05-07T04:29:17;21.38;;;13.02;;
72728;SDS011;60843;52.062;4.508;2023-05-07T04:31:43;17.63;;;11.88;;
72728;SDS011;60843;52.062;4.508;2023-05-07T04:34:10;19.33;;;13.18;;
72728;SDS011;60843;52.062;4.508;2023-05-07T04:36:37;18.52;;;12.32;;
72728;SDS011;60843;52.062;4.508;2023-05-07T04:39:03;20.05;;;11.85;;
72728;SDS011;60843;52.062;4.508;2023-05-07T04:41:28;17.77;;;11.20;;
72728;SDS011;60843;52.062;4.508;2023-05-07T04:43:54;19.25;;;12.35;;
72728;SDS011;60843;52.062;4.508;2023-05-07T04:46:20;18.00;;;12.18;;
72728;SDS011;60843;52.062;4.508;2023-05-07T04:48:45;19.63;;;11.98;;
72728;SDS011;60843;52.062;4.508;2023-05-07T04:51:13;16.20;;;11.67;;
72728;SDS011;60843;52.062;4.508;2023-05-07T04:53:38;18.08;;;11.55;;
72728;SDS011;60843;52.062;4.508;2023-05-07T04:56:04;19.77;;;11.80;;
72728;SDS011;60843;52.062;4.508;2023-05-07T04:58:30;18.52;;;12.50;;
72728;SDS011;60843;52.062;4.508;2023-05-07T05:00:56;19.35;;;12.57;;
72728;SDS011;60843;52.062;4.508;2023-05-07T05:03:22;21.83;;;11.75;;
72728;SDS011;60843;52.062;4.508;2023-05-07T05:05:51;20.52;;;12.38;;
72728;SDS011;60843;52.062;4.508;2023-05-07T05:08:17;20.20;;;12.02;;
72728;SDS011;60843;52.062;4.508;2023-05-07T05:10:43;18.42;;;12.00;;
72728;SDS011;60843;52.062;4.508;2023-05-07T05:13:10;17.95;;;11.73;;
72728;SDS011;60843;52.062;4.508;2023-05-07T05:15:38;16.73;;;11.32;;
72728;SDS011;60843;52.062;4.508;2023-05-07T05:18:03;20.42;;;11.80;;
72728;SDS011;60843;52.062;4.508;2023-05-07T05:20:29;27.40;;;14.93;;
72728;SDS011;60843;52.062;4.508;2023-05-07T05:22:54;20.98;;;12.57;;
72728;SDS011;60843;52.062;4.508;2023-05-07T05:25:20;17.80;;;11.02;;
72728;SDS011;60843;52.062;4.508;2023-05-07T05:27:45;19.25;;;12.50;;
72728;SDS011;60843;52.062;4.508;2023-05-07T05:30:11;17.83;;;11.27;;
72728;SDS011;60843;52.062;4.508;2023-05-07T05:32:37;19.55;;;12.45;;
72728;SDS011;60843;52.062;4.508;2023-05-07T05:35:03;18.70;;;12.52;;
72728;SDS011;60843;52.062;4.508;2023-05-07T05:37:29;18.08;;;11.60;;
72728;SDS011;60843;52.062;4.508;2023-05-07T05:39:56;16.10;;;11.32;;
72728;SDS011;60843;52.062;4.508;2023-05-07T05:42:21;16.00;;;11.13;;
72728;SDS011;60843;52.062;4.508;2023-05-07T05:44:46;19.43;;;12.00;;
72728;SDS011;60843;52.062;4.508;2023-05-07T05:47:12;17.15;;;11.93;;
72728;SDS011;60843;52.062;4.508;2023-05-07T05:49:38;18.67;;;12.10;;
72728;SDS011;60843;52.062;4.508;2023-05-07T05:52:04;17.67;;;12.10;;
72728;SDS011;60843;52.062;4.508;2023-05-07T05:54:29;18.48;;;12.60;;
72728;SDS011;60843;52.062;4.508;2023-05-07T05:56:54;19.42;;;12.40;;
72728;SDS011;60843;52.062;4.508;2023-05-07T05:59:20;19.67;;;11.90;;
72728;SDS011;60843;52.062;4.508;2023-05-07T06:01:47;21.27;;;13.45;;
72728;SDS011;60843;52.062;4.508;2023-05-07T06:04:12;20.17;;;13.80;;
72728;SDS011;60843;52.062;4.508;2023-05-07T06:06:42;21.83;;;13.82;;
72728;SDS011;60843;52.062;4.508;2023-05-07T06:09:07;22.50;;;14.20;;
72728;SDS011;60843;52.062;4.508;2023-05-07T06:11:32;23.23;;;14.73;;
72728;SDS011;60843;52.062;4.508;2023-05-07T06:14:00;22.55;;;14.70;;
72728;SDS011;60843;52.062;4.508;2023-05-07T06:16:26;23.88;;;13.23;;
72728;SDS011;60843;52.062;4.508;2023-05-07T06:18:51;26.40;;;14.82;;
72728;SDS011;60843;52.062;4.508;2023-05-07T06:21:17;23.73;;;14.53;;
72728;SDS011;60843;52.062;4.508;2023-05-07T06:23:42;23.95;;;14.60;;
72728;SDS011;60843;52.062;4.508;2023-05-07T06:26:07;22.98;;;13.73;;
72728;SDS011;60843;52.062;4.508;2023-05-07T06:28:33;23.25;;;14.07;;
72728;SDS011;60843;52.062;4.508;2023-05-07T06:31:11;19.73;;;12.68;;
72728;SDS011;60843;52.062;4.508;2023-05-07T06:33:40;18.20;;;12.35;;
72728;SDS011;60843;52.062;4.508;2023-05-07T06:36:05;16.27;;;11.70;;
72728;SDS011;60843;52.062;4.508;2023-05-07T06:38:32;19.70;;;12.15;;
72728;SDS011;60843;52.062;4.508;2023-05-07T06:40:58;18.35;;;12.15;;
72728;SDS011;60843;52.062;4.508;2023-05-07T06:43:28;17.80;;;12.60;;
72728;SDS011;60843;52.062;4.508;2023-05-07T06:45:53;20.90;;;12.70;;
72728;SDS011;60843;52.062;4.508;2023-05-07T06:48:19;20.42;;;12.90;;
72728;SDS011;60843;52.062;4.508;2023-05-07T06:50:45;20.63;;;13.90;;
72728;SDS011;60843;52.062;4.508;2023-05-07T06:53:10;19.63;;;12.13;;
72728;SDS011;60843;52.062;4.508;2023-05-07T06:55:36;22.00;;;12.45;;
72728;SDS011;60843;52.062;4.508;2023-05-07T06:58:03;20.83;;;12.68;;
72728;SDS011;60843;52.062;4.508;2023-05-07T07:00:28;17.35;;;12.68;;
72728;SDS011;60843;52.062;4.508;2023-05-07T07:02:54;17.08;;;11.45;;
72728;SDS011;60843;52.062;4.508;2023-05-07T07:05:20;18.05;;;11.68;;
72728;SDS011;60843;52.062;4.508;2023-05-07T07:07:45;20.42;;;12.20;;
72728;SDS011;60843;52.062;4.508;2023-05-07T07:10:17;19.90;;;11.88;;
72728;SDS011;60843;52.062;4.508;2023-05-07T07:12:46;18.60;;;12.30;;
72728;SDS011;60843;52.062;4.508;2023-05-07T07:15:11;16.70;;;11.65;;
72728;SDS011;60843;52.062;4.508;2023-05-07T07:17:38;19.88;;;12.32;;
72728;SDS011;60843;52.062;4.508;2023-05-07T07:20:05;16.80;;;11.77;;
72728;SDS011;60843;52.062;4.508;2023-05-07T07:22:34;17.70;;;11.45;;
72728;SDS011;60843;52.062;4.508;2023-05-07T07:24:59;16.45;;;10.93;;
72728;SDS011;60843;52.062;4.508;2023-05-07T07:27:25;16.25;;;10.95;;
72728;SDS011;60843;52.062;4.508;2023-05-07T07:29:50;19.05;;;11.20;;
72728;SDS011;60843;52.062;4.508;2023-05-07T07:32:16;12.87;;;9.23;;
72728;SDS011;60843;52.062;4.508;2023-05-07T07:34:41;14.40;;;9.67;;
72728;SDS011;60843;52.062;4.508;2023-05-07T07:37:07;16.35;;;9.52;;
72728;SDS011;60843;52.062;4.508;2023-05-07T07:39:32;17.38;;;9.40;;
72728;SDS011;60843;52.062;4.508;2023-05-07T07:41:58;13.07;;;8.93;;
72728;SDS011;60843;52.062;4.508;2023-05-07T07:44:23;16.60;;;9.70;;
72728;SDS011;60843;52.062;4.508;2023-05-07T07:46:49;13.90;;;9.43;;
72728;SDS011;60843;52.062;4.508;2023-05-07T07:49:15;15.77;;;9.73;;
72728;SDS011;60843;52.062;4.508;2023-05-07T07:51:41;15.90;;;9.82;;
72728;SDS011;60843;52.062;4.508;2023-05-07T07:54:06;15.60;;;9.98;;
72728;SDS011;60843;52.062;4.508;2023-05-07T07:56:32;15.32;;;9.30;;
72728;SDS011;60843;52.062;4.508;2023-05-07T07:58:58;15.70;;;9.65;;
72728;SDS011;60843;52.062;4.508;2023-05-07T08:01:24;13.40;;;8.45;;
72728;SDS011;60843;52.062;4.508;2023-05-07T08:03:49;14.88;;;8.88;;
72728;SDS011;60843;52.062;4.508;2023-05-07T08:06:15;14.13;;;8.40;;
72728;SDS011;60843;52.062;4.508;2023-05-07T08:08:40;12.07;;;7.72;;
72728;SDS011;60843;52.062;4.508;2023-05-07T08:11:06;12.52;;;8.15;;
72728;SDS011;60843;52.062;4.508;2023-05-07T08:13:31;12.75;;;7.40;;
72728;SDS011;60843;52.062;4.508;2023-05-07T08:15:56;11.65;;;7.38;;
72728;SDS011;60843;52.062;4.508;2023-05-07T08:18:22;10.20;;;6.90;;
72728;SDS011;60843;52.062;4.508;2023-05-07T08:20:49;13.80;;;6.90;;
72728;SDS011;60843;52.062;4.508;2023-05-07T08:23:15;15.50;;;7.30;;
72728;SDS011;60843;52.062;4.508;2023-05-07T08:25:41;12.48;;;7.25;;
72728;SDS011;60843;52.062;4.508;2023-05-07T08:28:07;12.32;;;6.65;;
72728;SDS011;60843;52.062;4.508;2023-05-07T08:30:33;11.40;;;7.50;;
72728;SDS011;60843;52.062;4.508;2023-05-07T08:32:59;15.60;;;7.65;;
72728;SDS011;60843;52.062;4.508;2023-05-07T08:35:25;11.82;;;7.15;;
72728;SDS011;60843;52.062;4.508;2023-05-07T08:37:51;12.40;;;7.20;;
72728;SDS011;60843;52.062;4.508;2023-05-07T08:40:17;12.27;;;6.57;;
72728;SDS011;60843;52.062;4.508;2023-05-07T08:42:43;12.23;;;6.70;;
72728;SDS011;60843;52.062;4.508;2023-05-07T08:45:10;10.38;;;6.38;;
72728;SDS011;60843;52.062;4.508;2023-05-07T08:47:43;10.45;;;5.85;;
72728;SDS011;60843;52.062;4.508;2023-05-07T08:50:12;10.63;;;6.20;;
72728;SDS011;60843;52.062;4.508;2023-05-07T08:52:39;10.80;;;6.13;;
72728;SDS011;60843;52.062;4.508;2023-05-07T08:55:08;8.15;;;6.32;;
72728;SDS011;60843;52.062;4.508;2023-05-07T08:57:34;9.10;;;5.65;;
72728;SDS011;60843;52.062;4.508;2023-05-07T08:59:59;9.30;;;6.18;;
72728;SDS011;60843;52.062;4.508;2023-05-07T09:02:25;10.63;;;5.90;;
72728;SDS011;60843;52.062;4.508;2023-05-07T09:04:50;9.15;;;5.07;;
72728;SDS011;60843;52.062;4.508;2023-05-07T09:07:16;9.55;;;5.53;;
72728;SDS011;60843;52.062;4.508;2023-05-07T09:09:43;10.63;;;6.22;;
72728;SDS011;60843;52.062;4.508;2023-05-07T09:12:09;9.27;;;5.18;;
72728;SDS011;60843;52.062;4.508;2023-05-07T09:14:35;11.15;;;6.43;;
72728;SDS011;60843;52.062;4.508;2023-05-07T09:17:00;10.63;;;7.05;;
72728;SDS011;60843;52.062;4.508;2023-05-07T09:19:26;11.98;;;6.95;;
72728;SDS011;60843;52.062;4.508;2023-05-07T09:22:02;13.90;;;7.30;;
72728;SDS011;60843;52.062;4.508;2023-05-07T09:24:30;14.00;;;7.65;;
72728;SDS011;60843;52.062;4.508;2023-05-07T09:27:00;12.27;;;7.43;;
72728;SDS011;60843;52.062;4.508;2023-05-07T09:29:26;10.90;;;7.53;;
72728;SDS011;60843;52.062;4.508;2023-05-07T09:34:23;9.75;;;5.95;;
72728;SDS011;60843;52.062;4.508;2023-05-07T09:36:48;9.20;;;6.30;;
72728;SDS011;60843;52.062;4.508;2023-05-07T09:39:14;8.65;;;5.32;;
72728;SDS011;60843;52.062;4.508;2023-05-07T09:41:43;8.23;;;5.90;;
72728;SDS011;60843;52.062;4.508;2023-05-07T09:44:09;11.50;;;5.97;;
72728;SDS011;60843;52.062;4.508;2023-05-07T09:46:38;9.93;;;6.07;;
72728;SDS011;60843;52.062;4.508;2023-05-07T09:49:03;9.43;;;6.15;;
72728;SDS011;60843;52.062;4.508;2023-05-07T09:51:39;10.95;;;6.80;;
72728;SDS011;60843;52.062;4.508;2023-05-07T09:54:07;12.88;;;6.60;;
72728;SDS011;60843;52.062;4.508;2023-05-07T09:56:39;10.60;;;6.40;;
72728;SDS011;60843;52.062;4.508;2023-05-07T09:59:06;13.07;;;6.03;;
72728;SDS011;60843;52.062;4.508;2023-05-07T10:01:32;11.23;;;6.70;;
72728;SDS011;60843;52.062;4.508;2023-05-07T10:03:58;11.10;;;6.10;;
72728;SDS011;60843;52.062;4.508;2023-05-07T10:06:24;9.10;;;6.00;;
72728;SDS011;60843;52.062;4.508;2023-05-07T10:08:50;12.10;;;6.53;;
72728;SDS011;60843;52.062;4.508;2023-05-07T10:11:17;11.45;;;6.95;;
72728;SDS011;60843;52.062;4.508;2023-05-07T10:13:44;13.98;;;7.97;;
72728;SDS011;60843;52.062;4.508;2023-05-07T10:16:11;11.00;;;6.43;;
72728;SDS011;60843;52.062;4.508;2023-05-07T10:18:37;11.43;;;6.13;;
72728;SDS011;60843;52.062;4.508;2023-05-07T10:21:08;11.02;;;5.50;;
72728;SDS011;60843;52.062;4.508;2023-05-07T10:23:36;9.55;;;6.63;;
72728;SDS011;60843;52.062;4.508;2023-05-07T10:26:03;10.02;;;6.13;;
72728;SDS011;60843;52.062;4.508;2023-05-07T10:28:33;11.73;;;6.43;;
72728;SDS011;60843;52.062;4.508;2023-05-07T10:31:11;9.60;;;6.15;;
72728;SDS011;60843;52.062;4.508;2023-05-07T10:33:48;10.98;;;6.13;;
72728;SDS011;60843;52.062;4.508;2023-05-07T10:36:16;11.55;;;6.85;;
72728;SDS011;60843;52.062;4.508;2023-05-07T10:38:42;9.68;;;5.80;;
72728;SDS011;60843;52.062;4.508;2023-05-07T10:41:10;14.48;;;6.78;;
72728;SDS011;60843;52.062;4.508;2023-05-07T10:43:40;10.85;;;6.40;;
72728;SDS011;60843;52.062;4.508;2023-05-07T10:46:10;10.85;;;5.80;;
72728;SDS011;60843;52.062;4.508;2023-05-07T10:51:35;13.23;;;6.22;;
72728;SDS011;60843;52.062;4.508;2023-05-07T10:56:41;10.50;;;5.85;;
72728;SDS011;60843;52.062;4.508;2023-05-07T11:02:01;8.50;;;4.70;;
72728;SDS011;60843;52.062;4.508;2023-05-07T11:04:28;8.90;;;4.68;;
72728;SDS011;60843;52.062;4.508;2023-05-07T11:15:09;8.13;;;4.50;;
72728;SDS011;60843;52.062;4.508;2023-05-07T11:20:44;10.73;;;5.30;;
72728;SDS011;60843;52.062;4.508;2023-05-07T11:26:00;8.20;;;4.68;;
72728;SDS011;60843;52.062;4.508;2023-05-07T11:28:27;8.07;;;3.80;;
72728;SDS011;60843;52.062;4.508;2023-05-07T11:30:53;8.70;;;4.03;;
72728;SDS011;60843;52.062;4.508;2023-05-07T11:33:19;10.80;;;3.95;;
72728;SDS011;60843;52.062;4.508;2023-05-07T11:35:45;8.82;;;3.70;;
72728;SDS011;60843;52.062;4.508;2023-05-07T11:38:11;10.52;;;3.17;;
72728;SDS011;60843;52.062;4.508;2023-05-07T11:40:56;5.85;;;3.22;;
72728;SDS011;60843;52.062;4.508;2023-05-07T11:43:22;5.97;;;3.05;;
72728;SDS011;60843;52.062;4.508;2023-05-07T11:45:48;7.20;;;3.28;;
72728;SDS011;60843;52.062;4.508;2023-05-07T11:48:14;9.65;;;4.20;;
72728;SDS011;60843;52.062;4.508;2023-05-07T11:50:53;9.48;;;4.88;;
72728;SDS011;60843;52.062;4.508;2023-05-07T11:53:36;9.50;;;4.45;;
72728;SDS011;60843;52.062;4.508;2023-05-07T11:56:07;8.25;;;4.85;;
72728;SDS011;60843;52.062;4.508;2023-05-07T11:58:33;8.20;;;4.03;;
72728;SDS011;60843;52.062;4.508;2023-05-07T12:01:00;8.32;;;5.40;;
72728;SDS011;60843;52.062;4.508;2023-05-07T12:03:25;7.95;;;4.85;;
72728;SDS011;60843;52.062;4.508;2023-05-07T12:05:51;10.48;;;5.40;;
72728;SDS011;60843;52.062;4.508;2023-05-07T12:08:19;8.00;;;5.17;;
72728;SDS011;60843;52.062;4.508;2023-05-07T12:10:47;12.50;;;5.57;;
72728;SDS011;60843;52.062;4.508;2023-05-07T12:13:14;9.70;;;5.07;;
72728;SDS011;60843;52.062;4.508;2023-05-07T12:15:40;8.18;;;5.07;;
72728;SDS011;60843;52.062;4.508;2023-05-07T12:18:06;8.00;;;5.25;;
72728;SDS011;60843;52.062;4.508;2023-05-07T12:20:33;11.50;;;5.50;;
72728;SDS011;60843;52.062;4.508;2023-05-07T12:23:06;10.07;;;5.93;;
72728;SDS011;60843;52.062;4.508;2023-05-07T12:25:36;10.88;;;5.78;;
72728;SDS011;60843;52.062;4.508;2023-05-07T12:28:05;10.55;;;5.93;;
72728;SDS011;60843;52.062;4.508;2023-05-07T12:30:38;12.38;;;5.95;;
72728;SDS011;60843;52.062;4.508;2023-05-07T12:33:03;10.18;;;6.57;;
72728;SDS011;60843;52.062;4.508;2023-05-07T12:35:29;13.23;;;6.78;;
72728;SDS011;60843;52.062;4.508;2023-05-07T12:37:56;15.68;;;7.63;;
72728;SDS011;60843;52.062;4.508;2023-05-07T12:40:24;20.52;;;7.55;;
72728;SDS011;60843;52.062;4.508;2023-05-07T12:42:52;14.68;;;8.40;;
72728;SDS011;60843;52.062;4.508;2023-05-07T12:45:20;12.75;;;8.18;;
72728;SDS011;60843;52.062;4.508;2023-05-07T12:47:46;18.80;;;10.00;;
72728;SDS011;60843;52.062;4.508;2023-05-07T12:50:15;22.67;;;10.85;;
72728;SDS011;60843;52.062;4.508;2023-05-07T12:52:41;27.08;;;12.65;;
72728;SDS011;60843;52.062;4.508;2023-05-07T12:55:08;26.38;;;12.55;;
72728;SDS011;60843;52.062;4.508;2023-05-07T12:57:38;26.38;;;11.57;;
72728;SDS011;60843;52.062;4.508;2023-05-07T13:00:07;23.02;;;10.77;;
72728;SDS011;60843;52.062;4.508;2023-05-07T13:02:41;23.50;;;9.27;;
72728;SDS011;60843;52.062;4.508;2023-05-07T13:05:12;2.08;;;0.30;;
72728;SDS011;60843;52.062;4.508;2023-05-07T13:07:38;0.25;;;0.10;;
72728;SDS011;60843;52.062;4.508;2023-05-07T13:10:05;0.00;;;0.00;;
72728;SDS011;60843;52.062;4.508;2023-05-07T13:12:31;0.13;;;0.13;;
72728;SDS011;60843;52.062;4.508;2023-05-07T13:14:57;0.00;;;0.00;;
72728;SDS011;60843;52.062;4.508;2023-05-07T13:17:24;2.10;;;0.30;;
72728;SDS011;60843;52.062;4.508;2023-05-07T13:19:49;0.00;;;0.00;;
72728;SDS011;60843;52.062;4.508;2023-05-07T13:22:15;0.00;;;0.00;;
72728;SDS011;60843;52.062;4.508;2023-05-07T13:24:40;0.00;;;0.00;;
72728;SDS011;60843;52.062;4.508;2023-05-07T13:27:08;0.00;;;0.00;;
72728;SDS011;60843;52.062;4.508;2023-05-07T13:29:33;0.00;;;0.00;;
72728;SDS011;60843;52.062;4.508;2023-05-07T13:31:59;0.30;;;0.30;;
72728;SDS011;60843;52.062;4.508;2023-05-07T13:34:24;0.00;;;0.00;;
72728;SDS011;60843;52.062;4.508;2023-05-07T13:36:50;0.13;;;0.10;;
72728;SDS011;60843;52.062;4.508;2023-05-07T13:39:15;0.05;;;0.05;;
72728;SDS011;60843;52.062;4.508;2023-05-07T13:41:41;0.00;;;0.00;;
72728;SDS011;60843;52.062;4.508;2023-05-07T13:44:06;0.00;;;0.00;;
72728;SDS011;60843;52.062;4.508;2023-05-07T13:46:32;0.50;;;0.30;;
72728;SDS011;60843;52.062;4.508;2023-05-07T13:48:58;0.00;;;0.00;;
72728;SDS011;60843;52.062;4.508;2023-05-07T13:51:23;0.00;;;0.00;;
72728;SDS011;60843;52.062;4.508;2023-05-07T13:53:49;0.00;;;0.00;;
72728;SDS011;60843;52.062;4.508;2023-05-07T13:56:15;0.00;;;0.00;;
72728;SDS011;60843;52.062;4.508;2023-05-07T13:58:40;0.00;;;0.00;;
72728;SDS011;60843;52.062;4.508;2023-05-07T14:01:08;0.00;;;0.00;;
72728;SDS011;60843;52.062;4.508;2023-05-07T14:03:33;0.10;;;0.10;;
72728;SDS011;60843;52.062;4.508;2023-05-07T14:06:00;0.00;;;0.00;;
72728;SDS011;60843;52.062;4.508;2023-05-07T14:08:28;0.00;;;0.00;;
72728;SDS011;60843;52.062;4.508;2023-05-07T14:10:53;0.00;;;0.00;;
72728;SDS011;60843;52.062;4.508;2023-05-07T14:13:19;0.45;;;0.10;;
72728;SDS011;60843;52.062;4.508;2023-05-07T14:15:45;0.00;;;0.00;;
72728;SDS011;60843;52.062;4.508;2023-05-07T14:18:12;0.00;;;0.00;;
72728;SDS011;60843;52.062;4.508;2023-05-07T14:20:38;0.00;;;0.00;;
72728;SDS011;60843;52.062;4.508;2023-05-07T14:23:03;0.00;;;0.00;;
72728;SDS011;60843;52.062;4.508;2023-05-07T14:25:29;0.00;;;0.00;;
72728;SDS011;60843;52.062;4.508;2023-05-07T14:27:54;0.00;;;0.00;;
72728;SDS011;60843;52.062;4.508;2023-05-07T14:30:20;0.30;;;0.25;;
72728;SDS011;60843;52.062;4.508;2023-05-07T14:32:47;0.00;;;0.00;;
72728;SDS011;60843;52.062;4.508;2023-05-07T14:35:13;0.00;;;0.00;;
72728;SDS011;60843;52.062;4.508;2023-05-07T14:37:38;0.85;;;0.10;;
72728;SDS011;60843;52.062;4.508;2023-05-07T14:40:04;0.13;;;0.13;;
72728;SDS011;60843;52.062;4.508;2023-05-07T14:42:30;0.00;;;0.00;;
72728;SDS011;60843;52.062;4.508;2023-05-07T14:44:56;0.00;;;0.00;;
72728;SDS011;60843;52.062;4.508;2023-05-07T14:47:22;0.00;;;0.00;;
72728;SDS011;60843;52.062;4.508;2023-05-07T14:49:47;0.00;;;0.00;;
72728;SDS011;60843;52.062;4.508;2023-05-07T14:52:13;0.00;;;0.00;;
72728;SDS011;60843;52.062;4.508;2023-05-07T14:54:39;0.00;;;0.00;;